Time;durP1;ratioP1;P1;durP2;ratioP2;P2;SDS_P1;SDS_P2;PMS_P1;PMS_P2;Temp;Humidity;BMP_temperature;BMP_pressure;BME280_temperature;BME280_humidity;BME280_pressure;Samples;Min_cycle;Max_cycle;Signal;HPM_P1;HPM_P2
2022/11/16 00:00:04;;;;;;;5.60;4.03;;;;;;;7.84;95.21;97353.88;4202959;28;20127;-73
2022/11/16 00:02:04;;;;;;;9.70;4.50;;;;;;;7.82;95.41;97355.44;4205362;28;20039;-73
2022/11/16 00:04:05;;;;;;;7.45;4.53;;;;;;;7.81;95.50;97356.63;4205301;28;20081;-73
2022/11/16 00:06:06;;;;;;;5.95;4.22;;;;;;;7.77;96.28;97348.31;4205160;28;20129;-73
2022/11/16 00:08:07;;;;;;;8.50;4.57;;;;;;;7.75;96.50;97350.69;4203376;28;20028;-73
2022/11/16 00:10:07;;;;;;;8.27;4.90;;;;;;;7.72;96.30;97353.44;4204304;28;20029;-73
2022/11/16 00:12:09;;;;;;;7.07;4.90;;;;;;;7.72;96.48;97353.44;4204616;28;20382;-73
2022/11/16 00:14:10;;;;;;;9.00;4.95;;;;;;;7.69;96.00;97343.97;4204145;28;20471;-73
2022/11/16 00:16:16;;;;;;;8.95;5.43;;;;;;;7.69;96.01;97352.22;4204798;28;20040;-73
2022/11/16 00:18:16;;;;;;;7.50;5.25;;;;;;;7.68;96.03;97342.38;4204136;28;20035;-73
2022/11/16 00:20:17;;;;;;;7.78;4.90;;;;;;;7.69;95.85;97349.47;4204984;28;20032;-73
2022/11/16 00:22:17;;;;;;;6.78;4.43;;;;;;;7.68;96.23;97339.63;4204786;28;20055;-73
2022/11/16 00:24:19;;;;;;;7.72;4.72;;;;;;;7.65;96.39;97329.41;4204328;28;20040;-73
2022/11/16 00:26:20;;;;;;;6.32;4.28;;;;;;;7.65;96.91;97334.13;4204177;28;20109;-73
2022/11/16 00:28:20;;;;;;;7.78;4.25;;;;;;;7.65;96.32;97334.91;4204944;28;20164;-73
2022/11/16 00:30:21;;;;;;;6.10;4.07;;;;;;;7.66;96.34;97321.94;4204144;28;20380;-73
2022/11/16 00:32:22;;;;;;;7.82;4.07;;;;;;;7.66;95.84;97324.69;4204366;28;20040;-73
2022/11/16 00:34:23;;;;;;;11.15;5.93;;;;;;;7.66;95.76;97316.44;4204541;28;20044;-73
2022/11/16 00:36:23;;;;;;;7.47;4.15;;;;;;;7.65;95.75;97321.16;4204546;28;20418;-73
2022/11/16 00:38:24;;;;;;;7.65;5.15;;;;;;;7.66;95.96;97325.47;4204157;28;20056;-73
2022/11/16 00:40:24;;;;;;;7.32;4.60;;;;;;;7.64;95.85;97319.56;4203629;28;20154;-73
2022/11/16 00:42:24;;;;;;;6.15;4.20;;;;;;;7.66;95.54;97316.44;4204582;28;20064;-73
2022/11/16 00:44:25;;;;;;;6.93;4.30;;;;;;;7.66;95.59;97317.22;4203724;28;20068;-73
2022/11/16 00:46:25;;;;;;;7.25;4.40;;;;;;;7.66;95.58;97311.72;4204477;28;20060;-73
2022/11/16 00:48:25;;;;;;;7.05;4.22;;;;;;;7.65;95.57;97310.13;4186714;28;20071;-73
2022/11/16 00:50:26;;;;;;;7.95;4.25;;;;;;;7.65;95.83;97312.88;4203967;28;20059;-73
2022/11/16 00:52:26;;;;;;;6.47;3.85;;;;;;;7.63;95.79;97307.00;4204013;28;20068;-73
2022/11/16 00:54:26;;;;;;;9.63;4.07;;;;;;;7.64;95.61;97308.56;4204264;28;20337;-73
2022/11/16 00:56:27;;;;;;;6.07;4.03;;;;;;;7.63;95.53;97304.25;4203943;28;20068;-73
2022/11/16 00:58:27;;;;;;;6.07;4.40;;;;;;;7.61;95.84;97306.56;4204247;28;20079;-73
2022/11/16 01:00:27;;;;;;;6.72;4.80;;;;;;;7.61;95.79;97306.56;4203844;28;20055;-73
2022/11/16 01:02:28;;;;;;;6.63;4.07;;;;;;;7.60;95.88;97305.00;4203969;28;20028;-73
2022/11/16 01:04:28;;;;;;;5.95;3.97;;;;;;;7.59;95.90;97295.94;4204007;28;20040;-73
2022/11/16 01:06:28;;;;;;;5.78;4.13;;;;;;;7.58;96.47;97297.13;4203520;28;20430;-73
2022/11/16 01:08:29;;;;;;;9.90;4.57;;;;;;;7.58;95.82;97299.88;4204069;28;20387;-73
2022/11/16 01:10:29;;;;;;;7.55;4.13;;;;;;;7.62;95.80;97296.38;4202672;28;20538;-73
2022/11/16 01:12:30;;;;;;;6.47;3.63;;;;;;;7.62;95.02;97288.91;4202596;28;20129;-73
2022/11/16 01:14:30;;;;;;;5.68;3.67;;;;;;;7.65;94.88;97292.84;4204221;28;20051;-73
2022/11/16 01:16:30;;;;;;;6.43;3.97;;;;;;;7.63;94.88;97284.19;4203935;28;20403;-73
2022/11/16 01:18:31;;;;;;;7.43;3.80;;;;;;;7.66;95.07;97300.69;4198911;28;20533;-73
2022/11/16 01:20:31;;;;;;;7.80;4.30;;;;;;;7.72;94.35;97288.13;4198572;28;20389;-73
2022/11/16 01:22:34;;;;;;;5.45;3.85;;;;;;;7.72;94.04;97290.09;4199550;28;20119;-73
2022/11/16 01:24:34;;;;;;;6.20;4.07;;;;;;;7.70;94.67;97287.75;4202365;28;20048;-73
2022/11/16 01:26:36;;;;;;;5.95;3.92;;;;;;;7.70;94.27;97290.50;4202693;28;20334;-73
2022/11/16 01:28:36;;;;;;;5.75;3.67;;;;;;;7.68;94.37;97275.53;4202903;28;20830;-73
2022/11/16 01:30:36;;;;;;;7.43;3.75;;;;;;;7.66;94.78;97275.91;4202670;28;20050;-73
2022/11/16 01:32:37;;;;;;;8.48;3.40;;;;;;;7.65;94.47;97271.59;4201835;28;20119;-73
2022/11/16 01:34:37;;;;;;;7.40;3.88;;;;;;;7.66;94.25;97264.13;4202914;28;20469;-73
2022/11/16 01:36:37;;;;;;;6.90;4.03;;;;;;;7.64;94.35;97270.03;4201214;28;20497;-73
2022/11/16 01:38:38;;;;;;;9.40;3.55;;;;;;;7.65;94.53;97266.09;4202226;28;20698;-73
2022/11/16 01:40:38;;;;;;;8.27;3.83;;;;;;;7.67;94.59;97268.44;4202482;28;20075;-73
2022/11/16 01:42:39;;;;;;;6.15;3.83;;;;;;;7.64;94.42;97267.28;4201975;28;20220;-73
2022/11/16 01:44:39;;;;;;;8.20;5.10;;;;;;;7.66;94.38;97264.91;4202337;28;20279;-73
2022/11/16 01:46:41;;;;;;;7.10;4.05;;;;;;;7.66;94.31;97269.63;4202719;28;20040;-73
2022/11/16 01:48:41;;;;;;;8.05;4.28;;;;;;;7.62;94.63;97261.38;4202424;28;20059;-73
2022/11/16 01:50:43;;;;;;;5.65;3.35;;;;;;;7.64;94.41;97269.22;4202040;28;20056;-73
2022/11/16 01:52:52;;;;;;;5.03;3.55;;;;;;;7.61;94.50;97257.00;4201849;28;20459;-73
2022/11/16 01:54:54;;;;;;;5.88;3.60;;;;;;;7.64;94.09;97260.97;4202227;28;20488;-73
2022/11/16 01:56:55;;;;;;;8.30;4.10;;;;;;;7.62;94.63;97264.13;4201766;28;20040;-73
2022/11/16 01:58:56;;;;;;;5.03;3.33;;;;;;;7.60;94.64;97270.00;4202429;28;20755;-73
2022/11/16 02:00:56;;;;;;;5.88;3.80;;;;;;;7.57;94.32;97256.22;4202697;28;20044;-73
2022/11/16 02:02:57;;;;;;;6.82;4.15;;;;;;;7.54;94.93;97252.28;4201443;28;20048;-73
2022/11/16 02:04:58;;;;;;;7.93;3.90;;;;;;;7.55;94.77;97251.13;4201732;28;20040;-73
2022/11/16 02:07:23;;;;;;;9.30;3.67;;;;;;;7.55;94.84;97255.84;4202305;28;20822;-73
2022/11/16 02:09:54;;;;;;;7.85;4.00;;;;;;;7.53;94.84;97249.91;4201031;28;20051;-73
2022/11/16 02:12:12;;;;;;;6.18;3.83;;;;;;;7.51;94.65;97255.81;4201304;28;20476;-73
2022/11/16 02:14:56;;;;;;;7.50;4.40;;;;;;;7.48;94.79;97248.34;4201005;28;20105;-73
2022/11/16 02:16:59;;;;;;;5.82;3.65;;;;;;;7.50;95.02;97247.94;4201797;28;20105;-73
2022/11/16 02:19:28;;;;;;;6.85;3.47;;;;;;;7.48;95.57;97250.31;4202293;28;20235;-73
2022/11/16 02:21:35;;;;;;;10.52;3.95;;;;;;;7.47;96.02;97245.97;4201871;28;20304;-73
2022/11/16 02:24:13;;;;;;;5.80;3.90;;;;;;;7.45;96.16;97238.09;4200072;28;20357;-73
2022/11/16 02:26:36;;;;;;;6.47;3.75;;;;;;;7.44;95.93;97238.47;4201215;28;20054;-73
2022/11/16 02:29:05;;;;;;;6.15;4.05;;;;;;;7.45;95.81;97242.81;4200561;28;20484;-73
2022/11/16 02:31:13;;;;;;;6.28;3.58;;;;;;;7.44;95.83;97243.97;4200431;28;20380;-73
2022/11/16 02:33:17;;;;;;;6.68;3.55;;;;;;;7.44;95.91;97243.97;4199396;28;20134;-73
2022/11/16 02:35:27;;;;;;;8.57;4.30;;;;;;;7.44;95.66;97239.25;4199742;28;20040;-73
2022/11/16 02:37:33;;;;;;;6.80;3.88;;;;;;;7.44;95.99;97243.97;4202807;28;20036;-73
2022/11/16 02:39:36;;;;;;;6.45;3.90;;;;;;;7.43;95.77;97242.41;4198253;28;20040;-73
2022/11/16 02:41:40;;;;;;;6.18;4.25;;;;;;;7.42;96.01;97240.84;4200114;28;20057;-73
2022/11/16 02:43:44;;;;;;;5.95;3.85;;;;;;;7.43;95.96;97240.44;4200868;28;20377;-73
2022/11/16 02:45:48;;;;;;;9.57;3.42;;;;;;;7.44;95.95;97238.47;4201733;28;20291;-73
2022/11/16 02:47:52;;;;;;;6.28;3.67;;;;;;;7.41;95.92;97240.03;4202030;28;20136;-73
2022/11/16 02:49:57;;;;;;;6.75;3.38;;;;;;;7.39;95.87;97233.34;4201612;28;20536;-72
2022/11/16 02:51:57;;;;;;;5.82;3.25;;;;;;;7.39;96.02;97234.16;4201707;28;20135;-73
2022/11/16 02:54:03;;;;;;;4.85;3.60;;;;;;;7.38;95.93;97237.28;4201088;28;20158;-73
2022/11/16 02:56:04;;;;;;;5.05;3.17;;;;;;;7.36;96.11;97234.91;4201238;28;20044;-74
2022/11/16 02:58:08;;;;;;;4.78;3.35;;;;;;;7.35;96.00;97241.59;4201420;28;20032;-73
2022/11/16 03:00:17;;;;;;;5.22;3.45;;;;;;;7.32;96.20;97243.16;4201824;28;20024;-73
2022/11/16 03:02:45;;;;;;;5.88;3.50;;;;;;;7.32;96.85;97236.88;4200776;28;20071;-73
2022/11/16 03:04:59;;;;;;;5.70;3.00;;;;;;;7.29;96.73;97235.69;4202144;28;20090;-73
2022/11/16 03:07:01;;;;;;;7.25;4.00;;;;;;;7.26;96.47;97232.91;4200797;28;20083;-73
2022/11/16 03:09:07;;;;;;;4.63;3.17;;;;;;;7.25;96.75;97245.88;4202009;28;20048;-73
2022/11/16 03:13:32;;;;;;;21.52;11.90;;;;;;;7.23;96.54;97241.94;4199365;28;20567;-73
2022/11/16 03:15:37;;;;;;;44.13;21.10;;;;;;;7.24;96.48;97244.28;4200263;28;20052;-73
2022/11/16 03:17:45;;;;;;;70.70;31.42;;;;;;;7.22;97.00;97238.41;4201048;28;20048;-73
2022/11/16 03:20:13;;;;;;;54.33;25.15;;;;;;;7.23;96.91;97245.47;4200671;28;20078;-73
2022/11/16 03:22:19;;;;;;;50.60;23.15;;;;;;;7.22;96.63;97249.41;4200457;28;20431;-73
2022/11/16 03:24:19;;;;;;;35.95;18.48;;;;;;;7.23;96.92;97234.47;4200657;28;20041;-73
2022/11/16 03:26:23;;;;;;;24.50;12.88;;;;;;;7.19;96.90;97235.63;4201522;28;20028;-73
2022/11/16 03:28:32;;;;;;;18.38;9.25;;;;;;;7.21;97.05;97241.53;4201170;28;20293;-73
2022/11/16 03:30:37;;;;;;;16.95;9.90;;;;;;;7.18;97.41;97242.28;4201136;28;20517;-73
2022/11/16 03:33:05;;;;;;;17.88;9.20;;;;;;;7.17;97.41;97243.47;4200865;28;20059;-73
2022/11/16 03:35:13;;;;;;;13.45;8.30;;;;;;;7.14;97.35;97236.78;4201630;28;20169;-73
2022/11/16 03:37:14;;;;;;;10.40;6.60;;;;;;;7.13;97.84;97240.72;4204205;28;20730;-73
2022/11/16 03:39:21;;;;;;;11.10;6.72;;;;;;;7.15;97.98;97246.63;4205111;28;20079;-73
2022/11/16 03:41:23;;;;;;;13.63;6.85;;;;;;;7.13;98.19;97235.22;4203525;28;20063;-73
2022/11/16 03:43:26;;;;;;;10.10;5.78;;;;;;;7.12;98.07;97241.09;4203246;28;20441;-73
2022/11/16 03:45:28;;;;;;;11.85;6.97;;;;;;;7.09;98.58;97239.09;4204489;28;20024;-73
2022/11/16 03:47:29;;;;;;;9.68;5.70;;;;;;;7.10;98.56;97241.47;4204341;28;20079;-73
2022/11/16 03:49:30;;;;;;;12.55;7.07;;;;;;;7.08;98.58;97240.28;4204202;28;20028;-73
2022/11/16 03:51:30;;;;;;;12.35;7.45;;;;;;;7.07;98.86;97246.97;4202524;28;20051;-73
2022/11/16 03:53:31;;;;;;;12.48;6.53;;;;;;;7.02;99.15;97243.38;4201768;28;20043;-73
2022/11/16 03:55:31;;;;;;;10.27;6.20;;;;;;;7.03;99.58;97236.75;4204549;28;20121;-73
2022/11/16 03:57:31;;;;;;;13.15;6.97;;;;;;;7.02;99.31;97237.88;4202944;28;20487;-73
2022/11/16 03:59:32;;;;;;;12.13;6.03;;;;;;;7.02;99.60;97245.34;4204229;28;20376;-73
2022/11/16 04:01:33;;;;;;;11.32;6.05;;;;;;;7.03;99.57;97242.25;4202417;28;20244;-73
2022/11/16 04:03:33;;;;;;;8.80;5.00;;;;;;;6.98;99.76;97234.34;4202751;28;20067;-73
2022/11/16 04:24:24;;;;;;;6.32;4.47;;;;;;;6.98;100.00;97248.09;4202375;28;20077;-73
2022/11/16 04:28:44;;;;;;;7.00;4.40;;;;;;;6.98;100.00;97245.34;4203125;28;20372;-73
2022/11/16 04:38:03;;;;;;;8.48;4.93;;;;;;;6.98;100.00;97248.09;4158818;28;20358;-73
2022/11/16 04:40:04;;;;;;;9.30;4.50;;;;;;;6.98;100.00;97244.56;4182182;28;20502;-73
2022/11/16 04:42:18;;;;;;;7.57;4.30;;;;;;;7.00;100.00;97255.94;4204243;28;20032;-73
2022/11/16 04:44:19;;;;;;;9.75;4.97;;;;;;;6.96;100.00;97235.91;4203442;28;20044;-73
2022/11/16 04:48:38;;;;;;;8.77;5.00;;;;;;;6.91;100.00;97255.50;4202737;28;20541;-73
2022/11/16 04:50:38;;;;;;;7.95;4.60;;;;;;;6.88;100.00;97248.81;4204309;28;20048;-73
2022/11/16 04:52:39;;;;;;;7.57;4.80;;;;;;;6.86;100.00;97253.09;4203887;28;20100;-74
2022/11/16 04:54:39;;;;;;;7.85;5.15;;;;;;;6.85;100.00;97248.78;4204532;28;20044;-74
2022/11/16 04:56:39;;;;;;;7.50;4.70;;;;;;;6.82;100.00;97258.59;4204260;28;20399;-74
2022/11/16 04:58:40;;;;;;;9.05;4.97;;;;;;;6.84;100.00;97260.97;4204479;28;20393;-73
2022/11/16 05:00:40;;;;;;;9.80;4.72;;;;;;;6.81;100.00;97242.50;4203882;28;20186;-74
2022/11/16 05:02:40;;;;;;;7.18;4.57;;;;;;;6.79;100.00;97248.38;4202077;28;20145;-73
2022/11/16 05:04:42;;;;;;;7.60;5.00;;;;;;;6.74;100.00;97249.50;4204876;28;20044;-73
2022/11/16 05:06:42;;;;;;;6.88;4.57;;;;;;;6.74;100.00;97244.00;4203617;28;20040;-73
2022/11/16 05:08:43;;;;;;;9.35;5.30;;;;;;;6.77;100.00;97242.44;4202834;28;20403;-73
2022/11/16 05:10:43;;;;;;;7.40;4.93;;;;;;;6.78;100.00;97246.78;4203997;28;20093;-73
2022/11/16 05:12:43;;;;;;;8.90;5.15;;;;;;;6.80;100.00;97243.66;4203458;28;20044;-73
2022/11/16 05:14:44;;;;;;;8.48;5.53;;;;;;;6.82;100.00;97246.81;4203952;28;20135;-73
2022/11/16 05:16:44;;;;;;;8.63;4.82;;;;;;;6.82;100.00;97242.09;4204032;28;20105;-73
2022/11/16 05:20:59;;;;;;;9.43;5.20;;;;;;;6.88;100.00;97246.06;4202869;28;20068;-73
2022/11/16 05:21:05;;;;;;;8.30;5.07;;;;;;;6.91;100.00;97237.03;4201935;28;20043;-73
2022/11/16 05:24:32;;;;;;;7.07;4.40;;;;;;;6.91;100.00;97236.25;4203192;28;20596;-75
2022/11/16 05:25:26;;;;;;;7.63;4.90;;;;;;;6.95;100.00;97242.56;4203226;28;20051;-73
2022/11/16 05:27:28;;;;;;;7.35;5.15;;;;;;;7.00;100.00;97240.25;4204072;28;20326;-73
2022/11/16 05:29:28;;;;;;;10.20;5.83;;;;;;;7.02;100.00;97231.59;4203520;28;20071;-73
2022/11/16 05:31:29;;;;;;;7.72;5.15;;;;;;;7.00;100.00;97240.25;4203357;28;20484;-73
2022/11/16 05:33:29;;;;;;;9.73;5.47;;;;;;;7.04;100.00;97251.28;4203120;28;20044;-73
2022/11/16 05:35:29;;;;;;;13.23;5.90;;;;;;;6.99;100.00;97241.41;4203224;28;20044;-73
2022/11/16 05:37:30;;;;;;;8.52;5.95;;;;;;;6.99;100.00;97248.88;4203441;28;20047;-73
2022/11/16 05:39:30;;;;;;;9.60;5.07;;;;;;;6.96;100.00;97244.16;4203353;28;20375;-73
2022/11/16 05:41:31;;;;;;;8.80;5.05;;;;;;;6.96;100.00;97244.16;4203698;28;20486;-73
2022/11/16 05:43:31;;;;;;;9.10;6.53;;;;;;;6.91;100.00;97242.53;4202033;28;20516;-73
2022/11/16 05:45:31;;;;;;;9.25;4.70;;;;;;;6.91;100.00;97247.25;4202839;28;20492;-73
2022/11/16 05:47:32;;;;;;;8.20;5.60;;;;;;;6.89;100.00;97241.38;4203752;28;20131;-73
2022/11/16 05:49:32;;;;;;;8.13;4.88;;;;;;;6.89;100.00;97238.63;4203377;28;20072;-73
2022/11/16 05:51:34;;;;;;;10.27;6.65;;;;;;;6.91;100.00;97239.00;4185428;28;20052;-73
2022/11/16 05:53:34;;;;;;;10.25;5.60;;;;;;;6.92;100.00;97240.59;4202814;28;20036;-73
2022/11/16 05:55:35;;;;;;;9.85;5.28;;;;;;;6.90;100.00;97229.97;4201767;28;20608;-73
2022/11/16 05:57:35;;;;;;;8.65;5.30;;;;;;;6.89;100.00;97230.38;4203101;28;20164;-73
2022/11/16 05:59:36;;;;;;;9.48;5.32;;;;;;;6.91;100.00;97239.00;4142820;27;20455;-73
2022/11/16 06:01:36;;;;;;;15.50;6.20;;;;;;;6.91;100.00;97233.50;4201211;28;20117;-73
2022/11/16 06:03:36;;;;;;;9.77;6.15;;;;;;;6.91;100.00;97231.53;4201597;28;20028;-73
2022/11/16 06:05:37;;;;;;;10.73;6.80;;;;;;;6.90;100.00;97232.72;4202838;28;20039;-73
2022/11/16 06:07:37;;;;;;;12.48;6.63;;;;;;;6.93;100.00;97236.66;4185391;28;20044;-73
2022/11/16 06:09:37;;;;;;;14.75;7.78;;;;;;;6.91;100.00;97225.25;4201822;28;20036;-73
2022/11/16 06:11:38;;;;;;;10.93;6.97;;;;;;;6.92;100.00;97221.34;4202545;28;20052;-73
2022/11/16 06:13:38;;;;;;;13.15;6.68;;;;;;;6.92;100.00;97226.84;4201295;28;20075;-73
2022/11/16 06:15:39;;;;;;;23.10;7.82;;;;;;;6.92;100.00;97224.88;4202360;28;20043;-73
2022/11/16 06:17:39;;;;;;;13.00;7.22;;;;;;;6.94;100.00;97228.03;4202789;28;20376;-73
2022/11/16 06:19:40;;;;;;;9.45;6.60;;;;;;;6.94;100.00;97227.22;4202319;28;20447;-73
2022/11/16 06:21:40;;;;;;;10.73;7.07;;;;;;;6.95;100.00;97226.06;4203101;28;20088;-73
2022/11/16 06:23:41;;;;;;;12.52;7.80;;;;;;;6.94;100.00;97224.47;4202140;28;20032;-73
2022/11/16 06:25:41;;;;;;;13.13;7.50;;;;;;;6.94;100.00;97225.28;4202802;28;20036;-73
2022/11/16 06:27:41;;;;;;;10.85;6.43;;;;;;;6.93;100.00;97225.66;4201867;28;20044;-73
2022/11/16 06:29:42;;;;;;;12.80;6.82;;;;;;;6.94;100.00;97225.28;4199078;28;20068;-73
2022/11/16 06:31:42;;;;;;;11.05;6.35;;;;;;;6.95;100.00;97218.63;4200356;28;20044;-73
2022/11/16 06:33:42;;;;;;;14.18;7.30;;;;;;;6.94;100.00;97216.22;4201798;28;20217;-73
2022/11/16 06:35:43;;;;;;;13.13;7.88;;;;;;;6.95;100.00;97213.13;4201926;28;20385;-73
2022/11/16 06:37:43;;;;;;;11.55;7.68;;;;;;;6.96;100.00;97219.41;4202026;28;20047;-73
2022/11/16 06:39:44;;;;;;;26.50;9.15;;;;;;;6.96;100.00;97220.19;4202175;28;20054;-73
2022/11/16 06:41:44;;;;;;;19.40;9.30;;;;;;;6.99;100.00;97221.38;4202436;28;20071;-73
2022/11/16 06:43:45;;;;;;;16.80;9.32;;;;;;;6.97;100.00;97220.97;4201669;28;20110;-73
2022/11/16 06:45:49;;;;;;;17.20;9.10;;;;;;;7.00;100.00;97220.19;4201153;28;20443;-73
2022/11/16 06:47:49;;;;;;;17.23;10.25;;;;;;;7.01;100.00;97210.78;4202478;28;20072;-73
2022/11/16 06:49:50;;;;;;;18.08;8.65;;;;;;;7.02;100.00;97212.34;4202865;28;20078;-73
2022/11/16 06:51:50;;;;;;;29.33;10.25;;;;;;;7.01;100.00;97217.06;4203324;28;20052;-73
2022/11/16 06:53:50;;;;;;;21.55;10.57;;;;;;;7.02;100.00;97210.38;4201757;28;20044;-73
2022/11/16 06:55:51;;;;;;;16.05;8.65;;;;;;;7.01;100.00;97199.78;4202804;28;20055;-73
2022/11/16 06:57:51;;;;;;;18.80;9.75;;;;;;;7.04;100.00;97210.81;4204320;28;20460;-73
2022/11/16 06:59:52;;;;;;;17.55;9.43;;;;;;;7.02;100.00;97212.34;4202788;28;20511;-73
2022/11/16 07:01:52;;;;;;;15.15;9.60;;;;;;;7.02;100.00;97213.13;4203246;28;20046;-73
2022/11/16 07:03:52;;;;;;;19.52;9.63;;;;;;;7.01;100.00;97202.53;4202031;28;20434;-73
2022/11/16 07:05:53;;;;;;;17.48;10.63;;;;;;;7.00;100.00;97206.44;4202354;28;20568;-73
2022/11/16 07:07:54;;;;;;;15.57;9.50;;;;;;;7.00;100.00;97204.50;4202893;28;20523;-73
2022/11/16 07:09:54;;;;;;;15.68;9.27;;;;;;;6.98;100.00;97206.84;4203421;28;20085;-73
2022/11/16 07:11:55;;;;;;;19.88;10.13;;;;;;;7.00;100.00;97203.69;4208212;28;20737;-73
2022/11/16 07:13:55;;;;;;;21.58;10.27;;;;;;;6.99;100.00;97202.91;4206430;28;20621;-73
2022/11/16 07:16:09;;;;;;;20.90;10.25;;;;;;;6.99;100.00;97207.63;4206558;28;20064;-73
2022/11/16 07:18:10;;;;;;;18.95;11.15;;;;;;;6.96;100.00;97197.41;4187924;28;20041;-74
2022/11/16 07:20:13;;;;;;;16.90;10.18;;;;;;;6.98;100.00;97198.59;4206106;28;20417;-73
2022/11/16 07:22:14;;;;;;;19.45;11.88;;;;;;;6.99;100.00;97207.63;4205806;28;20439;-73
2022/11/16 07:24:14;;;;;;;19.80;11.55;;;;;;;7.00;100.00;97201.75;4205127;28;20032;-73
2022/11/16 07:26:14;;;;;;;22.63;12.30;;;;;;;7.02;100.00;97202.13;4206025;28;20062;-73
2022/11/16 07:28:14;;;;;;;27.45;11.85;;;;;;;6.99;100.00;97202.91;4205692;28;20032;-73
2022/11/16 07:30:15;;;;;;;24.25;13.43;;;;;;;7.01;100.00;97200.56;4206130;28;20059;-73
2022/11/16 07:32:16;;;;;;;25.17;11.50;;;;;;;7.03;100.00;97202.91;4205911;28;20376;-73
2022/11/16 07:34:16;;;;;;;35.38;23.85;;;;;;;7.02;100.00;97209.59;4205159;28;20043;-73
2022/11/16 07:36:17;;;;;;;54.15;41.55;;;;;;;7.04;100.00;97207.28;4205107;28;20408;-73
2022/11/16 07:38:17;;;;;;;34.13;25.75;;;;;;;7.04;100.00;97210.03;4206336;28;20016;-73
2022/11/16 07:40:18;;;;;;;27.02;20.13;;;;;;;7.04;100.00;97221.03;4206042;28;20027;-73
2022/11/16 07:42:19;;;;;;;24.63;14.02;;;;;;;7.06;100.00;97217.88;4204825;28;20040;-73
2022/11/16 07:44:19;;;;;;;27.17;15.32;;;;;;;7.04;100.00;97216.31;4204713;28;20127;-73
2022/11/16 07:46:22;;;;;;;19.88;11.43;;;;;;;7.06;100.00;97223.38;4203616;28;20028;-73
2022/11/16 07:48:23;;;;;;;20.33;11.73;;;;;;;7.06;100.00;97228.88;4204450;28;20109;-73
2022/11/16 07:50:23;;;;;;;16.35;9.75;;;;;;;7.03;100.00;97225.75;4204941;28;20040;-73
2022/11/16 07:52:23;;;;;;;20.63;10.70;;;;;;;7.07;100.00;97227.72;4204155;28;20480;-73
2022/11/16 07:54:23;;;;;;;23.63;11.50;;;;;;;7.08;100.00;97230.06;4204802;28;20355;-73
2022/11/16 07:56:24;;;;;;;20.50;11.68;;;;;;;7.08;100.00;97234.78;4204006;28;20188;-74
2022/11/16 07:58:26;;;;;;;21.00;11.65;;;;;;;7.09;100.00;97228.88;4201565;28;20059;-73
2022/11/16 08:00:27;;;;;;;20.10;11.10;;;;;;;7.08;100.00;97235.56;4204428;28;20040;-73
2022/11/16 08:02:27;;;;;;;19.05;12.02;;;;;;;7.12;100.00;97230.88;4202299;28;20510;-73
2022/11/16 08:04:27;;;;;;;38.53;16.40;;;;;;;7.12;100.00;97241.09;4201150;28;20423;-74
2022/11/16 08:06:30;;;;;;;23.02;13.80;;;;;;;7.11;100.00;97245.78;4200129;28;20048;-73
2022/11/16 08:08:31;;;;;;;20.50;11.55;;;;;;;7.11;100.00;97239.50;4203606;28;20663;-73
2022/11/16 08:10:31;;;;;;;27.38;11.60;;;;;;;7.10;100.00;97244.22;4200671;28;20044;-74
2022/11/16 08:12:31;;;;;;;19.60;10.98;;;;;;;7.12;100.00;97244.63;4202823;28;20349;-73
2022/11/16 08:14:32;;;;;;;18.33;11.25;;;;;;;7.14;100.00;97253.28;4203940;28;20380;-73
2022/11/16 08:16:32;;;;;;;19.70;12.57;;;;;;;7.15;100.00;97245.81;4203733;28;20543;-74
2022/11/16 08:18:33;;;;;;;20.42;12.55;;;;;;;7.14;100.00;97247.78;4203939;28;20054;-74
2022/11/16 08:20:35;;;;;;;19.40;11.50;;;;;;;7.12;100.00;97247.41;4203897;28;20040;-74
2022/11/16 08:22:35;;;;;;;18.02;12.32;;;;;;;7.16;100.00;97242.69;4200215;28;20402;-74
2022/11/16 08:24:36;;;;;;;17.58;10.98;;;;;;;7.16;100.00;97245.44;4202688;28;20093;-74
2022/11/16 08:26:36;;;;;;;15.75;10.35;;;;;;;7.20;100.00;97245.44;4202528;28;20068;-74
2022/11/16 08:28:36;;;;;;;18.13;10.85;;;;;;;7.20;100.00;97243.50;4203706;28;20065;-73
2022/11/16 08:30:38;;;;;;;18.33;10.05;;;;;;;7.23;100.00;97236.44;4204180;28;20040;-73
2022/11/16 08:32:40;;;;;;;18.08;10.20;;;;;;;7.23;100.00;97248.22;4201133;28;20153;-74
2022/11/16 08:34:41;;;;;;;19.25;9.90;;;;;;;7.24;100.00;97238.78;4203260;28;20042;-73
2022/11/16 08:36:41;;;;;;;19.27;11.02;;;;;;;7.25;100.00;97243.13;4203920;28;20443;-73
2022/11/16 08:38:43;;;;;;;23.27;11.68;;;;;;;7.25;100.00;97245.09;4203792;28;20155;-73
2022/11/16 08:40:44;;;;;;;18.40;11.40;;;;;;;7.28;100.00;97252.56;4202998;28;20110;-73
2022/11/16 08:42:44;;;;;;;23.80;11.68;;;;;;;7.27;100.00;97242.72;4202796;28;20097;-73
2022/11/16 08:44:44;;;;;;;17.65;10.18;;;;;;;7.28;100.00;97250.63;4203703;28;20078;-73
2022/11/16 08:46:45;;;;;;;17.90;10.35;;;;;;;7.30;100.00;97245.50;4203354;28;20063;-73
2022/11/16 08:48:45;;;;;;;20.08;11.63;;;;;;;7.32;100.00;97253.38;4203460;28;20040;-73
2022/11/16 08:50:46;;;;;;;19.90;9.90;;;;;;;7.36;100.00;97247.88;4203990;28;20119;-73
2022/11/16 08:52:46;;;;;;;19.80;10.85;;;;;;;7.38;100.00;97262.84;4202512;28;20115;-73
2022/11/16 08:54:47;;;;;;;17.42;10.82;;;;;;;7.38;100.00;97257.34;4202828;28;20112;-73
2022/11/16 08:56:47;;;;;;;18.42;10.55;;;;;;;7.40;100.00;97262.44;4203017;28;20028;-73
2022/11/16 08:58:47;;;;;;;21.60;11.88;;;;;;;7.42;100.00;97255.38;4203587;28;20047;-73
2022/11/16 09:00:48;;;;;;;22.25;11.23;;;;;;;7.44;100.00;97261.28;4203221;28;20039;-73
2022/11/16 09:02:48;;;;;;;17.10;9.57;;;;;;;7.46;100.00;97261.69;4202487;28;20048;-73
2022/11/16 09:04:48;;;;;;;19.02;10.38;;;;;;;7.47;100.00;97265.25;4203927;28;20048;-73
2022/11/16 09:06:51;;;;;;;17.92;10.95;;;;;;;7.48;100.00;97255.81;4203014;28;20448;-73
2022/11/16 09:08:52;;;;;;;;;;;;;;;7.51;100.00;97264.06;4202998;28;20048;-73
2022/11/16 09:10:52;;;;;;;17.73;10.75;;;;;;;7.52;100.00;97256.59;4202931;28;19912;-73
2022/11/16 09:12:52;;;;;;;19.50;10.70;;;;;;;7.54;100.00;97268.03;4202811;28;20578;-73
2022/11/16 09:14:53;;;;;;;19.83;10.48;;;;;;;7.54;100.00;97263.31;4203204;28;20699;-73
2022/11/16 09:16:53;;;;;;;18.58;10.77;;;;;;;7.54;100.00;97259.75;4203156;28;20050;-73
2022/11/16 09:18:54;;;;;;;17.40;10.43;;;;;;;7.54;100.00;97262.53;4203297;28;20498;-73
2022/11/16 09:20:55;;;;;;;19.45;10.63;;;;;;;7.58;100.00;97263.31;4202135;28;20207;-73
2022/11/16 09:22:56;;;;;;;16.35;10.07;;;;;;;7.58;100.00;97266.06;4201515;28;20044;-73
2022/11/16 09:24:56;;;;;;;18.48;10.27;;;;;;;7.59;100.00;97273.13;4202742;28;20092;-73
2022/11/16 09:27:00;;;;;;;17.13;10.52;;;;;;;7.60;100.00;97269.22;4203096;28;20376;-73
2022/11/16 09:29:02;;;;;;;18.00;10.30;;;;;;;7.60;100.00;97258.97;4199340;28;20288;-73
2022/11/16 09:31:04;;;;;;;19.65;11.20;;;;;;;7.64;100.00;97261.75;4201956;28;20093;-73
2022/11/16 09:33:05;;;;;;;22.35;11.95;;;;;;;7.65;100.00;97260.59;4201629;28;20044;-73
2022/11/16 09:35:05;;;;;;;21.55;11.35;;;;;;;7.68;100.00;97265.31;4202867;28;20127;-73
2022/11/16 09:37:06;;;;;;;16.63;10.45;;;;;;;7.70;100.00;97264.94;4202596;28;20044;-73
2022/11/16 09:39:07;;;;;;;19.23;10.70;;;;;;;7.73;100.00;97267.69;4202823;28;20040;-73
2022/11/16 09:41:13;;;;;;;18.33;10.63;;;;;;;7.77;100.00;97279.50;4202208;28;20048;-73
2022/11/16 09:43:43;;;;;;;22.60;11.00;;;;;;;7.83;100.00;97272.44;4199938;28;20055;-73
2022/11/16 09:46:13;;;;;;;20.58;11.73;;;;;;;7.88;100.00;97271.28;4180166;28;20090;-73
2022/11/16 09:48:16;;;;;;;23.33;12.93;;;;;;;7.89;100.00;97259.88;4201040;28;20074;-73
2022/11/16 09:50:28;;;;;;;19.00;11.65;;;;;;;7.94;100.00;97264.19;4202138;28;20646;-73
2022/11/16 09:52:36;;;;;;;26.88;12.90;;;;;;;7.99;100.00;97268.53;4200163;28;20040;-73
2022/11/16 09:54:40;;;;;;;21.42;12.85;;;;;;;8.04;100.00;97271.72;4202282;28;20032;-73
2022/11/16 09:56:43;;;;;;;20.40;10.75;;;;;;;8.07;100.00;97275.66;4201775;28;20043;-73
2022/11/16 09:58:43;;;;;;;;;;;;;;;8.10;100.00;97272.09;4201809;28;20040;-73
2022/11/16 10:00:52;;;;;;;26.35;11.77;;;;;;;8.10;100.00;97270.13;4201837;28;19916;-73
2022/11/16 10:03:04;;;;;;;25.40;12.57;;;;;;;8.12;100.00;97278.03;4201611;28;20079;-73
2022/11/16 10:05:13;;;;;;;19.85;11.63;;;;;;;8.09;100.00;97279.56;4202053;28;20483;-73
2022/11/16 10:07:18;;;;;;;21.88;12.48;;;;;;;8.08;100.00;97269.75;4202075;28;20039;-73